sensor_id;sensor_type;location;lat;lon;timestamp;temperature;humidity
38788;DHT22;24536;45.488;12.238;2024-03-23T00:54:23;16.30;90.70
38788;DHT22;24536;45.488;12.238;2024-03-23T00:56:49;16.30;90.70
38788;DHT22;24536;45.488;12.238;2024-03-23T00:59:15;16.30;90.60
38788;DHT22;24536;45.488;12.238;2024-03-23T01:01:40;16.30;90.50
38788;DHT22;24536;45.488;12.238;2024-03-23T01:04:06;16.30;90.50
38788;DHT22;24536;45.488;12.238;2024-03-23T01:06:31;16.30;90.50
38788;DHT22;24536;45.488;12.238;2024-03-23T01:08:57;16.30;90.50
38788;DHT22;24536;45.488;12.238;2024-03-23T01:11:23;16.30;90.40
38788;DHT22;24536;45.488;12.238;2024-03-23T01:13:48;16.30;90.30
38788;DHT22;24536;45.488;12.238;2024-03-23T01:16:14;16.30;90.10
38788;DHT22;24536;45.488;12.238;2024-03-23T01:18:39;16.30;90.10
38788;DHT22;24536;45.488;12.238;2024-03-23T01:21:05;16.30;90.10
38788;DHT22;24536;45.488;12.238;2024-03-23T01:23:31;16.30;90.20
38788;DHT22;24536;45.488;12.238;2024-03-23T01:25:56;16.20;90.20
38788;DHT22;24536;45.488;12.238;2024-03-23T01:28:22;16.20;90.30
38788;DHT22;24536;45.488;12.238;2024-03-23T01:30:49;16.20;90.30
38788;DHT22;24536;45.488;12.238;2024-03-23T01:33:15;16.20;90.30
38788;DHT22;24536;45.488;12.238;2024-03-23T01:35:41;16.20;90.20
38788;DHT22;24536;45.488;12.238;2024-03-23T01:38:06;16.20;90.20
38788;DHT22;24536;45.488;12.238;2024-03-23T01:40:32;16.20;90.20
38788;DHT22;24536;45.488;12.238;2024-03-23T01:42:59;16.20;90.30
38788;DHT22;24536;45.488;12.238;2024-03-23T01:45:27;16.20;90.40
38788;DHT22;24536;45.488;12.238;2024-03-23T01:47:53;16.10;90.40
38788;DHT22;24536;45.488;12.238;2024-03-23T01:50:22;16.20;90.30
38788;DHT22;24536;45.488;12.238;2024-03-23T01:52:48;16.10;90.40
38788;DHT22;24536;45.488;12.238;2024-03-23T01:55:14;16.10;90.40
38788;DHT22;24536;45.488;12.238;2024-03-23T01:57:39;16.10;90.40
38788;DHT22;24536;45.488;12.238;2024-03-23T02:00:06;16.10;90.40
38788;DHT22;24536;45.488;12.238;2024-03-23T02:02:31;16.10;90.40
38788;DHT22;24536;45.488;12.238;2024-03-23T02:04:57;16.00;90.40
38788;DHT22;24536;45.488;12.238;2024-03-23T02:07:23;16.00;90.50
38788;DHT22;24536;45.488;12.238;2024-03-23T02:09:53;16.00;90.50
38788;DHT22;24536;45.488;12.238;2024-03-23T02:12:19;16.00;90.60
38788;DHT22;24536;45.488;12.238;2024-03-23T02:14:45;16.00;90.70
38788;DHT22;24536;45.488;12.238;2024-03-23T02:17:10;15.90;90.90
38788;DHT22;24536;45.488;12.238;2024-03-23T02:19:55;15.90;90.80
38788;DHT22;24536;45.488;12.238;2024-03-23T02:22:20;15.90;90.80
38788;DHT22;24536;45.488;12.238;2024-03-23T02:24:46;15.90;90.90
38788;DHT22;24536;45.488;12.238;2024-03-23T02:27:12;15.80;90.90
38788;DHT22;24536;45.488;12.238;2024-03-23T02:29:38;15.80;90.90
38788;DHT22;24536;45.488;12.238;2024-03-23T02:32:04;15.80;90.90
38788;DHT22;24536;45.488;12.238;2024-03-23T02:34:30;15.80;90.90
38788;DHT22;24536;45.488;12.238;2024-03-23T02:36:56;15.80;90.90
38788;DHT22;24536;45.488;12.238;2024-03-23T02:39:22;15.80;90.90
38788;DHT22;24536;45.488;12.238;2024-03-23T02:41:47;15.70;90.80
38788;DHT22;24536;45.488;12.238;2024-03-23T02:44:14;15.60;90.80
38788;DHT22;24536;45.488;12.238;2024-03-23T02:46:40;15.60;90.90
38788;DHT22;24536;45.488;12.238;2024-03-23T02:49:07;15.50;91.00
38788;DHT22;24536;45.488;12.238;2024-03-23T02:51:33;15.40;91.10
38788;DHT22;24536;45.488;12.238;2024-03-23T02:53:59;15.30;91.30
38788;DHT22;24536;45.488;12.238;2024-03-23T02:56:24;15.30;91.40
38788;DHT22;24536;45.488;12.238;2024-03-23T02:58:50;15.30;91.50
38788;DHT22;24536;45.488;12.238;2024-03-23T03:01:16;15.20;91.50
38788;DHT22;24536;45.488;12.238;2024-03-23T03:03:41;15.20;91.50
38788;DHT22;24536;45.488;12.238;2024-03-23T03:06:07;15.10;91.50
38788;DHT22;24536;45.488;12.238;2024-03-23T03:08:33;15.20;91.60
38788;DHT22;24536;45.488;12.238;2024-03-23T03:10:59;15.10;91.60
38788;DHT22;24536;45.488;12.238;2024-03-23T03:13:25;15.10;91.80
38788;DHT22;24536;45.488;12.238;2024-03-23T03:15:50;15.00;92.00
38788;DHT22;24536;45.488;12.238;2024-03-23T03:18:16;14.90;92.00
38788;DHT22;24536;45.488;12.238;2024-03-23T03:20:41;14.90;92.10
38788;DHT22;24536;45.488;12.238;2024-03-23T03:23:07;14.90;92.10
38788;DHT22;24536;45.488;12.238;2024-03-23T03:25:33;14.90;92.20
38788;DHT22;24536;45.488;12.238;2024-03-23T03:27:59;15.00;92.30
38788;DHT22;24536;45.488;12.238;2024-03-23T03:30:25;15.00;92.30
38788;DHT22;24536;45.488;12.238;2024-03-23T03:32:53;15.00;92.40
38788;DHT22;24536;45.488;12.238;2024-03-23T03:35:20;15.10;92.20
38788;DHT22;24536;45.488;12.238;2024-03-23T03:37:45;15.10;92.10
38788;DHT22;24536;45.488;12.238;2024-03-23T03:40:17;15.10;92.20
38788;DHT22;24536;45.488;12.238;2024-03-23T03:42:42;15.10;92.20
38788;DHT22;24536;45.488;12.238;2024-03-23T03:45:08;15.10;92.30
38788;DHT22;24536;45.488;12.238;2024-03-23T03:47:34;15.10;92.20
38788;DHT22;24536;45.488;12.238;2024-03-23T03:49:59;15.10;92.20
38788;DHT22;24536;45.488;12.238;2024-03-23T03:52:29;15.10;92.30
38788;DHT22;24536;45.488;12.238;2024-03-23T03:55:02;15.00;92.30
38788;DHT22;24536;45.488;12.238;2024-03-23T03:57:28;15.00;92.40
38788;DHT22;24536;45.488;12.238;2024-03-23T03:59:54;15.00;92.50
38788;DHT22;24536;45.488;12.238;2024-03-23T04:02:19;15.00;92.50
38788;DHT22;24536;45.488;12.238;2024-03-23T04:04:45;15.00;92.50
38788;DHT22;24536;45.488;12.238;2024-03-23T04:07:11;15.00;92.50
38788;DHT22;24536;45.488;12.238;2024-03-23T04:09:38;15.00;92.50
38788;DHT22;24536;45.488;12.238;2024-03-23T04:12:04;15.00;92.50
38788;DHT22;24536;45.488;12.238;2024-03-23T04:14:30;15.10;92.50
38788;DHT22;24536;45.488;12.238;2024-03-23T04:16:56;15.00;92.40
38788;DHT22;24536;45.488;12.238;2024-03-23T04:19:21;15.00;92.40
38788;DHT22;24536;45.488;12.238;2024-03-23T04:21:47;15.00;92.40
38788;DHT22;24536;45.488;12.238;2024-03-23T04:24:12;15.00;92.30
38788;DHT22;24536;45.488;12.238;2024-03-23T04:26:41;15.00;92.30
38788;DHT22;24536;45.488;12.238;2024-03-23T04:29:07;14.90;92.30
38788;DHT22;24536;45.488;12.238;2024-03-23T04:31:33;15.00;92.30
38788;DHT22;24536;45.488;12.238;2024-03-23T04:34:00;14.90;92.20
38788;DHT22;24536;45.488;12.238;2024-03-23T04:36:26;14.90;92.10
38788;DHT22;24536;45.488;12.238;2024-03-23T04:38:52;14.90;92.00
38788;DHT22;24536;45.488;12.238;2024-03-23T04:41:18;14.90;92.00
38788;DHT22;24536;45.488;12.238;2024-03-23T04:43:44;14.80;91.90
38788;DHT22;24536;45.488;12.238;2024-03-23T04:46:10;14.80;91.90
38788;DHT22;24536;45.488;12.238;2024-03-23T04:48:36;14.70;92.00
38788;DHT22;24536;45.488;12.238;2024-03-23T04:51:02;14.70;91.90
38788;DHT22;24536;45.488;12.238;2024-03-23T04:53:27;14.60;91.90
38788;DHT22;24536;45.488;12.238;2024-03-23T04:55:56;14.60;92.00
38788;DHT22;24536;45.488;12.238;2024-03-23T04:58:22;14.50;92.10
38788;DHT22;24536;45.488;12.238;2024-03-23T05:00:56;14.50;92.10
38788;DHT22;24536;45.488;12.238;2024-03-23T05:03:22;14.50;92.10
38788;DHT22;24536;45.488;12.238;2024-03-23T05:05:48;14.40;92.10
38788;DHT22;24536;45.488;12.238;2024-03-23T05:08:15;14.40;92.20
38788;DHT22;24536;45.488;12.238;2024-03-23T05:10:44;14.40;92.30
38788;DHT22;24536;45.488;12.238;2024-03-23T05:13:10;14.40;92.30
38788;DHT22;24536;45.488;12.238;2024-03-23T05:15:36;14.40;92.30
38788;DHT22;24536;45.488;12.238;2024-03-23T05:18:02;14.40;92.30
38788;DHT22;24536;45.488;12.238;2024-03-23T05:20:27;14.40;92.30
38788;DHT22;24536;45.488;12.238;2024-03-23T05:22:55;14.40;92.50
38788;DHT22;24536;45.488;12.238;2024-03-23T05:25:24;14.40;92.60
38788;DHT22;24536;45.488;12.238;2024-03-23T05:27:49;14.40;92.60
38788;DHT22;24536;45.488;12.238;2024-03-23T05:30:15;14.40;92.60
38788;DHT22;24536;45.488;12.238;2024-03-23T05:32:41;14.50;92.70
38788;DHT22;24536;45.488;12.238;2024-03-23T05:35:09;14.50;92.80
38788;DHT22;24536;45.488;12.238;2024-03-23T05:37:34;14.40;92.80
38788;DHT22;24536;45.488;12.238;2024-03-23T05:40:01;14.40;92.80
38788;DHT22;24536;45.488;12.238;2024-03-23T05:42:27;14.40;92.90
38788;DHT22;24536;45.488;12.238;2024-03-23T05:44:52;14.40;93.00
38788;DHT22;24536;45.488;12.238;2024-03-23T05:47:21;14.40;93.40
38788;DHT22;24536;45.488;12.238;2024-03-23T05:49:46;14.40;93.30
38788;DHT22;24536;45.488;12.238;2024-03-23T05:52:12;14.30;93.40
38788;DHT22;24536;45.488;12.238;2024-03-23T05:54:38;14.40;93.50
38788;DHT22;24536;45.488;12.238;2024-03-23T05:57:05;14.40;93.60
38788;DHT22;24536;45.488;12.238;2024-03-23T05:59:41;14.40;93.70
38788;DHT22;24536;45.488;12.238;2024-03-23T06:02:07;14.40;93.80
38788;DHT22;24536;45.488;12.238;2024-03-23T06:04:36;14.40;93.90
38788;DHT22;24536;45.488;12.238;2024-03-23T06:07:02;14.40;93.90
38788;DHT22;24536;45.488;12.238;2024-03-23T06:09:28;14.40;94.00
38788;DHT22;24536;45.488;12.238;2024-03-23T06:14:46;14.40;93.90
38788;DHT22;24536;45.488;12.238;2024-03-23T06:17:13;14.40;93.90
38788;DHT22;24536;45.488;12.238;2024-03-23T06:19:39;14.50;93.80
38788;DHT22;24536;45.488;12.238;2024-03-23T06:22:05;14.40;93.80
38788;DHT22;24536;45.488;12.238;2024-03-23T06:24:32;14.40;93.90
38788;DHT22;24536;45.488;12.238;2024-03-23T06:26:57;14.40;93.90
38788;DHT22;24536;45.488;12.238;2024-03-23T06:29:23;14.40;93.90
38788;DHT22;24536;45.488;12.238;2024-03-23T06:32:19;14.40;94.00
38788;DHT22;24536;45.488;12.238;2024-03-23T06:34:44;14.50;94.10
38788;DHT22;24536;45.488;12.238;2024-03-23T06:37:17;14.50;94.20
38788;DHT22;24536;45.488;12.238;2024-03-23T06:39:45;14.50;94.30
38788;DHT22;24536;45.488;12.238;2024-03-23T06:42:11;14.50;94.30
38788;DHT22;24536;45.488;12.238;2024-03-23T06:44:37;14.60;94.30
38788;DHT22;24536;45.488;12.238;2024-03-23T06:47:05;14.60;94.30
38788;DHT22;24536;45.488;12.238;2024-03-23T06:49:31;14.70;94.30
38788;DHT22;24536;45.488;12.238;2024-03-23T06:51:57;14.70;94.40
38788;DHT22;24536;45.488;12.238;2024-03-23T06:54:24;14.80;94.40
38788;DHT22;24536;45.488;12.238;2024-03-23T06:56:50;14.80;94.40
38788;DHT22;24536;45.488;12.238;2024-03-23T06:59:15;14.90;94.50
38788;DHT22;24536;45.488;12.238;2024-03-23T07:01:41;14.90;94.50
38788;DHT22;24536;45.488;12.238;2024-03-23T07:04:07;15.00;94.50
38788;DHT22;24536;45.488;12.238;2024-03-23T07:06:33;15.10;94.60
38788;DHT22;24536;45.488;12.238;2024-03-23T07:08:59;15.10;94.70
38788;DHT22;24536;45.488;12.238;2024-03-23T07:11:25;15.20;94.70
38788;DHT22;24536;45.488;12.238;2024-03-23T07:13:52;15.30;94.70
38788;DHT22;24536;45.488;12.238;2024-03-23T07:16:19;15.40;94.80
38788;DHT22;24536;45.488;12.238;2024-03-23T07:18:46;15.50;94.80
38788;DHT22;24536;45.488;12.238;2024-03-23T07:21:11;15.60;94.80
38788;DHT22;24536;45.488;12.238;2024-03-23T07:23:41;15.70;94.70
38788;DHT22;24536;45.488;12.238;2024-03-23T07:26:07;15.80;94.90
38788;DHT22;24536;45.488;12.238;2024-03-23T07:28:33;15.90;94.70
38788;DHT22;24536;45.488;12.238;2024-03-23T07:31:08;15.90;94.70
38788;DHT22;24536;45.488;12.238;2024-03-23T07:33:46;16.00;94.70
38788;DHT22;24536;45.488;12.238;2024-03-23T07:36:12;16.10;94.60
38788;DHT22;24536;45.488;12.238;2024-03-23T07:38:43;16.20;94.50
38788;DHT22;24536;45.488;12.238;2024-03-23T07:41:15;16.20;94.40
38788;DHT22;24536;45.488;12.238;2024-03-23T07:43:43;16.30;94.60
38788;DHT22;24536;45.488;12.238;2024-03-23T07:46:09;16.30;94.30
38788;DHT22;24536;45.488;12.238;2024-03-23T07:48:34;16.50;94.40
38788;DHT22;24536;45.488;12.238;2024-03-23T07:51:01;16.60;94.30
38788;DHT22;24536;45.488;12.238;2024-03-23T07:53:27;16.80;94.30
38788;DHT22;24536;45.488;12.238;2024-03-23T07:56:03;16.90;94.20
38788;DHT22;24536;45.488;12.238;2024-03-23T07:58:29;17.00;94.00
38788;DHT22;24536;45.488;12.238;2024-03-23T08:00:56;17.10;93.90
38788;DHT22;24536;45.488;12.238;2024-03-23T08:03:22;17.20;93.70
38788;DHT22;24536;45.488;12.238;2024-03-23T08:05:48;17.20;93.50
38788;DHT22;24536;45.488;12.238;2024-03-23T08:08:14;17.30;93.50
38788;DHT22;24536;45.488;12.238;2024-03-23T08:10:52;17.30;93.50
38788;DHT22;24536;45.488;12.238;2024-03-23T08:13:19;17.40;93.50
38788;DHT22;24536;45.488;12.238;2024-03-23T08:15:45;17.40;93.60
38788;DHT22;24536;45.488;12.238;2024-03-23T08:18:12;17.40;93.30
38788;DHT22;24536;45.488;12.238;2024-03-23T08:20:38;17.40;93.30
38788;DHT22;24536;45.488;12.238;2024-03-23T08:23:06;17.50;93.30
38788;DHT22;24536;45.488;12.238;2024-03-23T08:25:31;17.60;93.00
38788;DHT22;24536;45.488;12.238;2024-03-23T08:27:58;17.70;92.70
38788;DHT22;24536;45.488;12.238;2024-03-23T08:30:23;17.80;92.60
38788;DHT22;24536;45.488;12.238;2024-03-23T08:32:49;17.90;92.50
38788;DHT22;24536;45.488;12.238;2024-03-23T08:35:14;18.10;92.30
38788;DHT22;24536;45.488;12.238;2024-03-23T08:37:40;18.20;92.30
38788;DHT22;24536;45.488;12.238;2024-03-23T08:40:06;18.20;92.10
38788;DHT22;24536;45.488;12.238;2024-03-23T08:42:34;18.40;92.00
38788;DHT22;24536;45.488;12.238;2024-03-23T08:44:59;18.50;92.00
38788;DHT22;24536;45.488;12.238;2024-03-23T08:47:25;18.60;91.80
38788;DHT22;24536;45.488;12.238;2024-03-23T08:49:51;18.70;91.40
38788;DHT22;24536;45.488;12.238;2024-03-23T08:52:16;18.80;91.40
38788;DHT22;24536;45.488;12.238;2024-03-23T08:54:42;18.90;91.40
38788;DHT22;24536;45.488;12.238;2024-03-23T08:57:08;19.10;91.10
38788;DHT22;24536;45.488;12.238;2024-03-23T08:59:34;19.20;90.80
38788;DHT22;24536;45.488;12.238;2024-03-23T09:02:00;19.40;90.60
38788;DHT22;24536;45.488;12.238;2024-03-23T09:04:26;19.60;90.20
38788;DHT22;24536;45.488;12.238;2024-03-23T09:06:51;19.70;89.70
38788;DHT22;24536;45.488;12.238;2024-03-23T09:09:17;19.80;87.80
38788;DHT22;24536;45.488;12.238;2024-03-23T09:11:43;20.00;87.20
38788;DHT22;24536;45.488;12.238;2024-03-23T09:14:08;20.10;86.90
38788;DHT22;24536;45.488;12.238;2024-03-23T09:16:34;20.20;86.20
38788;DHT22;24536;45.488;12.238;2024-03-23T09:19:00;20.20;85.70
38788;DHT22;24536;45.488;12.238;2024-03-23T09:21:26;20.30;85.90
38788;DHT22;24536;45.488;12.238;2024-03-23T09:23:51;20.40;85.30
38788;DHT22;24536;45.488;12.238;2024-03-23T09:26:17;20.50;85.30
38788;DHT22;24536;45.488;12.238;2024-03-23T09:28:43;20.70;85.00
38788;DHT22;24536;45.488;12.238;2024-03-23T09:31:09;20.70;84.10
38788;DHT22;24536;45.488;12.238;2024-03-23T09:33:36;20.80;84.10
38788;DHT22;24536;45.488;12.238;2024-03-23T09:36:05;20.90;83.90
38788;DHT22;24536;45.488;12.238;2024-03-23T09:38:31;21.00;82.70
38788;DHT22;24536;45.488;12.238;2024-03-23T09:40:57;21.00;82.40
38788;DHT22;24536;45.488;12.238;2024-03-23T09:43:23;21.10;82.30
38788;DHT22;24536;45.488;12.238;2024-03-23T09:45:49;21.10;81.80
38788;DHT22;24536;45.488;12.238;2024-03-23T09:48:16;21.20;81.50
38788;DHT22;24536;45.488;12.238;2024-03-23T09:50:45;21.30;81.40
38788;DHT22;24536;45.488;12.238;2024-03-23T09:53:14;21.50;80.70
38788;DHT22;24536;45.488;12.238;2024-03-23T09:55:44;21.60;79.90
38788;DHT22;24536;45.488;12.238;2024-03-23T09:58:14;21.70;79.30
38788;DHT22;24536;45.488;12.238;2024-03-23T10:00:40;21.70;78.60
38788;DHT22;24536;45.488;12.238;2024-03-23T10:03:06;21.80;77.70
38788;DHT22;24536;45.488;12.238;2024-03-23T10:05:33;21.90;78.20
38788;DHT22;24536;45.488;12.238;2024-03-23T10:10:38;22.20;77.70
38788;DHT22;24536;45.488;12.238;2024-03-23T10:13:04;22.30;77.70
38788;DHT22;24536;45.488;12.238;2024-03-23T10:15:30;22.40;77.50
38788;DHT22;24536;45.488;12.238;2024-03-23T10:20:39;22.60;77.10
38788;DHT22;24536;45.488;12.238;2024-03-23T10:23:16;22.60;77.30
38788;DHT22;24536;45.488;12.238;2024-03-23T10:25:41;22.70;77.20
38788;DHT22;24536;45.488;12.238;2024-03-23T10:28:07;22.80;77.90
38788;DHT22;24536;45.488;12.238;2024-03-23T10:30:32;22.80;77.60
38788;DHT22;24536;45.488;12.238;2024-03-23T10:33:10;22.90;77.50
38788;DHT22;24536;45.488;12.238;2024-03-23T10:35:37;23.00;77.10
38788;DHT22;24536;45.488;12.238;2024-03-23T10:38:07;23.10;77.20
38788;DHT22;24536;45.488;12.238;2024-03-23T10:40:36;23.20;76.60
38788;DHT22;24536;45.488;12.238;2024-03-23T10:43:06;23.30;76.30
38788;DHT22;24536;45.488;12.238;2024-03-23T10:45:33;23.50;75.70
38788;DHT22;24536;45.488;12.238;2024-03-23T10:47:59;23.60;75.90
38788;DHT22;24536;45.488;12.238;2024-03-23T10:50:25;23.70;76.30
38788;DHT22;24536;45.488;12.238;2024-03-23T10:52:53;23.80;76.10
38788;DHT22;24536;45.488;12.238;2024-03-23T10:55:19;23.90;75.50
38788;DHT22;24536;45.488;12.238;2024-03-23T10:57:54;23.90;74.90
38788;DHT22;24536;45.488;12.238;2024-03-23T11:00:21;23.90;75.50
38788;DHT22;24536;45.488;12.238;2024-03-23T11:02:48;23.90;75.50
38788;DHT22;24536;45.488;12.238;2024-03-23T11:07:53;24.00;74.60
38788;DHT22;24536;45.488;12.238;2024-03-23T11:10:31;24.00;75.30
38788;DHT22;24536;45.488;12.238;2024-03-23T11:13:44;24.10;75.60
38788;DHT22;24536;45.488;12.238;2024-03-23T11:15:44;24.20;75.50
38788;DHT22;24536;45.488;12.238;2024-03-23T11:18:10;24.30;75.60
38788;DHT22;24536;45.488;12.238;2024-03-23T11:20:37;24.40;75.60
38788;DHT22;24536;45.488;12.238;2024-03-23T11:23:04;24.40;75.80
38788;DHT22;24536;45.488;12.238;2024-03-23T11:25:30;24.50;76.00
38788;DHT22;24536;45.488;12.238;2024-03-23T11:27:57;24.60;75.80
38788;DHT22;24536;45.488;12.238;2024-03-23T11:30:27;24.70;75.40
38788;DHT22;24536;45.488;12.238;2024-03-23T11:32:56;24.80;75.20
38788;DHT22;24536;45.488;12.238;2024-03-23T11:40:34;24.90;75.20
38788;DHT22;24536;45.488;12.238;2024-03-23T11:43:02;25.60;74.70
38788;DHT22;24536;45.488;12.238;2024-03-23T11:45:28;26.80;73.90
38788;DHT22;24536;45.488;12.238;2024-03-23T11:50:29;29.30;67.80
38788;DHT22;24536;45.488;12.238;2024-03-23T11:55:55;30.80;64.00
38788;DHT22;24536;45.488;12.238;2024-03-23T11:58:22;31.30;62.90
38788;DHT22;24536;45.488;12.238;2024-03-23T12:01:00;31.70;60.10
38788;DHT22;24536;45.488;12.238;2024-03-23T12:03:27;32.00;60.00
38788;DHT22;24536;45.488;12.238;2024-03-23T12:06:00;32.20;58.80
38788;DHT22;24536;45.488;12.238;2024-03-23T12:11:12;32.50;57.90
38788;DHT22;24536;45.488;12.238;2024-03-23T12:13:41;32.60;57.40
38788;DHT22;24536;45.488;12.238;2024-03-23T12:16:12;32.50;56.00
38788;DHT22;24536;45.488;12.238;2024-03-23T12:18:39;32.40;56.40
38788;DHT22;24536;45.488;12.238;2024-03-23T12:21:08;32.10;56.10
38788;DHT22;24536;45.488;12.238;2024-03-23T12:23:34;31.80;55.90
38788;DHT22;24536;45.488;12.238;2024-03-23T12:26:00;31.50;56.00
38788;DHT22;24536;45.488;12.238;2024-03-23T12:28:27;31.20;56.00
38788;DHT22;24536;45.488;12.238;2024-03-23T12:30:53;31.20;57.00
38788;DHT22;24536;45.488;12.238;2024-03-23T12:33:20;31.10;57.20
38788;DHT22;24536;45.488;12.238;2024-03-23T12:35:45;31.20;56.70
38788;DHT22;24536;45.488;12.238;2024-03-23T12:38:11;31.30;56.40
38788;DHT22;24536;45.488;12.238;2024-03-23T12:40:37;31.40;54.30
38788;DHT22;24536;45.488;12.238;2024-03-23T12:43:02;31.40;54.20
38788;DHT22;24536;45.488;12.238;2024-03-23T12:45:29;31.60;54.00
38788;DHT22;24536;45.488;12.238;2024-03-23T12:47:55;32.00;53.50
38788;DHT22;24536;45.488;12.238;2024-03-23T12:50:21;32.20;52.60
38788;DHT22;24536;45.488;12.238;2024-03-23T12:52:47;32.40;51.20
38788;DHT22;24536;45.488;12.238;2024-03-23T12:55:13;32.40;51.80
38788;DHT22;24536;45.488;12.238;2024-03-23T12:57:38;32.40;52.30
38788;DHT22;24536;45.488;12.238;2024-03-23T13:00:11;32.40;51.50
38788;DHT22;24536;45.488;12.238;2024-03-23T13:02:38;32.40;51.50
38788;DHT22;24536;45.488;12.238;2024-03-23T13:05:07;32.50;50.20
38788;DHT22;24536;45.488;12.238;2024-03-23T13:07:36;32.60;50.30
38788;DHT22;24536;45.488;12.238;2024-03-23T13:10:06;32.60;49.90
38788;DHT22;24536;45.488;12.238;2024-03-23T13:12:36;32.50;49.60
38788;DHT22;24536;45.488;12.238;2024-03-23T13:15:02;32.30;49.80
38788;DHT22;24536;45.488;12.238;2024-03-23T13:17:27;31.80;49.00
38788;DHT22;24536;45.488;12.238;2024-03-23T13:19:56;31.20;50.10
38788;DHT22;24536;45.488;12.238;2024-03-23T13:22:22;30.50;51.40
38788;DHT22;24536;45.488;12.238;2024-03-23T13:24:48;29.80;50.70
38788;DHT22;24536;45.488;12.238;2024-03-23T13:27:14;29.10;51.20
38788;DHT22;24536;45.488;12.238;2024-03-23T13:29:39;28.40;52.20
38788;DHT22;24536;45.488;12.238;2024-03-23T13:32:05;27.80;52.80
38788;DHT22;24536;45.488;12.238;2024-03-23T13:34:31;27.30;53.80
38788;DHT22;24536;45.488;12.238;2024-03-23T13:36:58;26.90;56.60
38788;DHT22;24536;45.488;12.238;2024-03-23T13:39:27;26.60;58.70
38788;DHT22;24536;45.488;12.238;2024-03-23T13:41:53;26.20;60.00
38788;DHT22;24536;45.488;12.238;2024-03-23T13:44:22;25.90;61.00
38788;DHT22;24536;45.488;12.238;2024-03-23T13:46:48;25.60;62.00
38788;DHT22;24536;45.488;12.238;2024-03-23T13:49:28;25.40;62.90
38788;DHT22;24536;45.488;12.238;2024-03-23T13:51:59;25.20;63.90
38788;DHT22;24536;45.488;12.238;2024-03-23T13:54:37;25.00;64.40
38788;DHT22;24536;45.488;12.238;2024-03-23T13:57:03;24.80;65.00
38788;DHT22;24536;45.488;12.238;2024-03-23T13:59:29;24.70;65.30
38788;DHT22;24536;45.488;12.238;2024-03-23T14:01:55;24.60;65.60
38788;DHT22;24536;45.488;12.238;2024-03-23T14:04:21;24.40;65.70
38788;DHT22;24536;45.488;12.238;2024-03-23T14:06:48;24.20;66.20
38788;DHT22;24536;45.488;12.238;2024-03-23T14:09:13;24.10;67.20
38788;DHT22;24536;45.488;12.238;2024-03-23T14:11:40;24.00;67.60
38788;DHT22;24536;45.488;12.238;2024-03-23T14:14:11;23.90;67.80
38788;DHT22;24536;45.488;12.238;2024-03-23T14:16:36;23.80;68.10
38788;DHT22;24536;45.488;12.238;2024-03-23T14:19:02;23.70;67.80
38788;DHT22;24536;45.488;12.238;2024-03-23T14:21:30;23.70;67.70
38788;DHT22;24536;45.488;12.238;2024-03-23T14:23:56;23.60;68.10
38788;DHT22;24536;45.488;12.238;2024-03-23T14:26:21;23.50;68.10
38788;DHT22;24536;45.488;12.238;2024-03-23T14:28:50;23.40;68.30
38788;DHT22;24536;45.488;12.238;2024-03-23T14:31:16;23.40;68.80
38788;DHT22;24536;45.488;12.238;2024-03-23T14:33:42;23.30;69.10
38788;DHT22;24536;45.488;12.238;2024-03-23T14:36:15;23.30;69.00
38788;DHT22;24536;45.488;12.238;2024-03-23T14:38:42;23.20;69.20
38788;DHT22;24536;45.488;12.238;2024-03-23T14:41:07;23.00;69.30
38788;DHT22;24536;45.488;12.238;2024-03-23T14:43:56;22.90;69.60
38788;DHT22;24536;45.488;12.238;2024-03-23T14:46:22;22.80;70.30
38788;DHT22;24536;45.488;12.238;2024-03-23T14:48:49;22.60;70.90
38788;DHT22;24536;45.488;12.238;2024-03-23T14:51:14;22.50;71.30
38788;DHT22;24536;45.488;12.238;2024-03-23T14:53:41;22.40;71.70
38788;DHT22;24536;45.488;12.238;2024-03-23T14:56:10;22.30;72.20
38788;DHT22;24536;45.488;12.238;2024-03-23T14:58:38;22.20;72.70
38788;DHT22;24536;45.488;12.238;2024-03-23T15:01:06;22.20;73.20
38788;DHT22;24536;45.488;12.238;2024-03-23T15:03:39;22.20;73.30
38788;DHT22;24536;45.488;12.238;2024-03-23T15:06:05;22.10;72.90
38788;DHT22;24536;45.488;12.238;2024-03-23T15:08:31;22.10;72.80
38788;DHT22;24536;45.488;12.238;2024-03-23T15:11:00;22.10;72.70
38788;DHT22;24536;45.488;12.238;2024-03-23T15:13:31;22.10;72.90
38788;DHT22;24536;45.488;12.238;2024-03-23T15:15:57;22.10;73.00
38788;DHT22;24536;45.488;12.238;2024-03-23T15:18:23;22.10;73.10
38788;DHT22;24536;45.488;12.238;2024-03-23T15:20:52;22.00;73.70
38788;DHT22;24536;45.488;12.238;2024-03-23T15:23:18;22.00;73.80
38788;DHT22;24536;45.488;12.238;2024-03-23T15:26:00;22.10;73.70
38788;DHT22;24536;45.488;12.238;2024-03-23T15:28:27;22.10;73.10
38788;DHT22;24536;45.488;12.238;2024-03-23T15:31:10;22.10;70.80
38788;DHT22;24536;45.488;12.238;2024-03-23T15:33:35;22.10;69.80
38788;DHT22;24536;45.488;12.238;2024-03-23T15:36:05;22.10;68.90
38788;DHT22;24536;45.488;12.238;2024-03-23T15:38:34;22.10;68.80
38788;DHT22;24536;45.488;12.238;2024-03-23T15:41:00;22.10;68.90
38788;DHT22;24536;45.488;12.238;2024-03-23T15:43:26;22.10;68.90
38788;DHT22;24536;45.488;12.238;2024-03-23T15:45:59;22.10;68.80
38788;DHT22;24536;45.488;12.238;2024-03-23T15:48:26;22.10;68.70
38788;DHT22;24536;45.488;12.238;2024-03-23T15:50:56;22.00;68.30
38788;DHT22;24536;45.488;12.238;2024-03-23T15:53:23;22.00;68.00
38788;DHT22;24536;45.488;12.238;2024-03-23T15:55:59;22.00;68.30
38788;DHT22;24536;45.488;12.238;2024-03-23T15:58:27;22.00;69.00
38788;DHT22;24536;45.488;12.238;2024-03-23T16:00:59;21.90;69.10
38788;DHT22;24536;45.488;12.238;2024-03-23T16:03:25;21.90;69.20
38788;DHT22;24536;45.488;12.238;2024-03-23T16:05:55;21.80;69.50
38788;DHT22;24536;45.488;12.238;2024-03-23T16:08:22;21.80;70.60
38788;DHT22;24536;45.488;12.238;2024-03-23T16:10:48;21.70;70.90
38788;DHT22;24536;45.488;12.238;2024-03-23T16:13:14;21.60;71.30
38788;DHT22;24536;45.488;12.238;2024-03-23T16:15:40;21.60;71.70
38788;DHT22;24536;45.488;12.238;2024-03-23T16:18:09;21.60;72.20
38788;DHT22;24536;45.488;12.238;2024-03-23T16:20:57;21.50;72.70
38788;DHT22;24536;45.488;12.238;2024-03-23T16:23:24;21.50;73.30
38788;DHT22;24536;45.488;12.238;2024-03-23T16:25:51;21.50;73.50
38788;DHT22;24536;45.488;12.238;2024-03-23T16:31:00;21.50;74.10
38788;DHT22;24536;45.488;12.238;2024-03-23T16:33:25;21.50;74.20
38788;DHT22;24536;45.488;12.238;2024-03-23T16:35:59;21.50;74.30